createdAt,value
2017-12-10T00:00:54.838Z,56.10
2017-12-10T00:03:22.359Z,56.40
2017-12-10T00:05:49.852Z,56.40
2017-12-10T00:08:17.359Z,56.40
2017-12-10T00:10:44.901Z,56.20
2017-12-10T00:13:12.371Z,56.40
2017-12-10T00:15:39.867Z,56.30
2017-12-10T00:18:07.367Z,56.40
2017-12-10T00:20:35.623Z,56.40
2017-12-10T00:23:03.116Z,56.40
2017-12-10T00:25:31.375Z,56.90
2017-12-10T00:27:59.636Z,57.90
2017-12-10T00:30:27.135Z,57.30
2017-12-10T00:32:54.645Z,57.60
2017-12-10T00:35:22.151Z,57.80
2017-12-10T00:37:49.646Z,58.10
2017-12-10T00:40:17.142Z,58.30
2017-12-10T00:42:45.427Z,58.40
2017-12-10T00:45:13.771Z,58.20
2017-12-10T00:47:41.262Z,58.10
2017-12-10T00:50:09.525Z,57.80
2017-12-10T00:52:37.207Z,57.80
2017-12-10T00:55:05.487Z,58.30
2017-12-10T00:57:33.739Z,58.40
2017-12-10T01:00:01.229Z,58.30
2017-12-10T01:02:28.784Z,58.20
2017-12-10T01:04:56.287Z,58.40
2017-12-10T01:07:23.771Z,58.30
2017-12-10T01:09:51.270Z,58.10
2017-12-10T01:12:18.775Z,58.70
2017-12-10T01:14:46.279Z,58.20
2017-12-10T01:17:13.779Z,58.30
2017-12-10T01:19:41.279Z,58.30
2017-12-10T01:22:09.531Z,58.40
2017-12-10T01:24:37.070Z,58.40
2017-12-10T01:27:04.547Z,58.40
2017-12-10T01:29:32.035Z,58.50
2017-12-10T01:32:00.427Z,58.70
2017-12-10T01:34:27.926Z,58.80
2017-12-10T01:36:55.427Z,58.90
2017-12-10T01:39:23.695Z,58.60
2017-12-10T01:41:51.951Z,58.50
2017-12-10T01:44:19.444Z,58.50
2017-12-10T01:46:47.698Z,58.60
2017-12-10T01:49:15.187Z,58.50
2017-12-10T01:51:42.795Z,58.80
2017-12-10T01:54:10.294Z,58.30
2017-12-10T01:56:38.553Z,58.30
2017-12-10T01:59:06.827Z,58.50
2017-12-10T02:01:34.327Z,58.40
2017-12-10T02:04:01.816Z,58.40
2017-12-10T02:06:29.315Z,58.70
2017-12-10T02:08:57.587Z,58.00
2017-12-10T02:11:25.839Z,58.00
2017-12-10T02:13:53.343Z,57.90
2017-12-10T02:16:20.847Z,57.70
2017-12-10T02:18:48.547Z,57.70
2017-12-10T02:21:16.822Z,57.80
2017-12-10T02:23:45.083Z,57.50
2017-12-10T02:26:12.575Z,57.50
2017-12-10T02:28:40.066Z,57.60
2017-12-10T02:31:07.553Z,57.50
2017-12-10T02:33:35.043Z,57.50
2017-12-10T02:36:02.563Z,57.40
2017-12-10T02:38:30.061Z,57.50
2017-12-10T02:40:57.804Z,57.40
2017-12-10T02:43:26.094Z,57.20
2017-12-10T02:45:53.595Z,57.10
2017-12-10T02:48:21.087Z,57.00
2017-12-10T02:50:48.579Z,56.90
2017-12-10T02:53:16.085Z,57.50
2017-12-10T02:55:43.587Z,56.60
2017-12-10T02:58:12.159Z,56.30
2017-12-10T03:00:40.415Z,56.30
2017-12-10T03:03:07.936Z,56.30
2017-12-10T03:05:35.428Z,56.10
2017-12-10T03:08:02.932Z,56.30
2017-12-10T03:10:30.446Z,56.30
2017-12-10T03:12:58.734Z,56.40
2017-12-10T03:15:26.991Z,57.00
2017-12-10T03:17:54.488Z,56.50
2017-12-10T03:20:22.743Z,56.20
2017-12-10T03:22:51.012Z,56.60
2017-12-10T03:25:18.499Z,55.80
2017-12-10T03:27:46.767Z,55.70
2017-12-10T03:30:15.036Z,55.60
2017-12-10T03:32:43.307Z,55.60
2017-12-10T03:35:10.812Z,55.60
2017-12-10T03:37:38.303Z,55.00
2017-12-10T03:40:05.792Z,55.40
2017-12-10T03:42:34.056Z,55.10
2017-12-10T03:45:01.557Z,55.00
2017-12-10T03:47:29.063Z,55.60
2017-12-10T03:49:56.551Z,55.60
2017-12-10T03:52:24.799Z,55.20
2017-12-10T03:54:53.195Z,55.20
2017-12-10T03:57:21.463Z,55.20
2017-12-10T03:59:48.975Z,55.20
2017-12-10T04:02:16.471Z,55.10
2017-12-10T04:04:43.959Z,55.00
2017-12-10T04:07:12.426Z,55.20
2017-12-10T04:09:40.684Z,55.50
2017-12-10T04:12:08.960Z,55.40
2017-12-10T04:14:36.472Z,55.40
2017-12-10T04:17:03.975Z,55.30
2017-12-10T04:19:31.464Z,55.30
2017-12-10T04:21:59.733Z,55.20
2017-12-10T04:24:27.991Z,54.90
2017-12-10T04:26:55.495Z,54.90
2017-12-10T04:29:22.984Z,54.90
2017-12-10T04:31:50.471Z,54.70
2017-12-10T04:34:17.966Z,54.60
2017-12-10T04:36:45.472Z,54.30
2017-12-10T04:39:12.960Z,54.20
2017-12-10T04:41:41.227Z,53.90
2017-12-10T04:44:09.512Z,54.30
2017-12-10T04:46:37.776Z,54.40
2017-12-10T04:49:06.038Z,54.50
2017-12-10T04:51:33.545Z,54.50
2017-12-10T04:54:01.035Z,54.40
2017-12-10T04:56:28.742Z,54.20
2017-12-10T04:58:56.995Z,53.90
2017-12-10T05:01:24.527Z,53.90
2017-12-10T05:03:52.035Z,53.90
2017-12-10T05:06:20.288Z,54.00
2017-12-10T05:08:48.647Z,54.00
2017-12-10T05:11:16.151Z,54.10
2017-12-10T05:13:44.419Z,53.70
2017-12-10T05:16:12.679Z,53.30
2017-12-10T05:18:40.360Z,54.00
2017-12-10T05:21:08.619Z,53.60
2017-12-10T05:23:37.607Z,53.80
2017-12-10T05:26:05.095Z,53.80
2017-12-10T05:28:33.351Z,53.20
2017-12-10T05:31:00.838Z,53.30
2017-12-10T05:33:28.359Z,53.00
2017-12-10T05:35:55.875Z,52.90
2017-12-10T05:38:23.379Z,52.70
2017-12-10T05:40:51.056Z,52.60
2017-12-10T05:43:19.331Z,52.70
2017-12-10T05:45:48.003Z,52.40
2017-12-10T05:48:15.508Z,52.30
2017-12-10T05:50:43.003Z,52.50
2017-12-10T05:53:10.586Z,52.40
2017-12-10T05:55:38.088Z,52.40
2017-12-10T05:58:05.587Z,52.40
2017-12-10T06:00:33.082Z,52.70
2017-12-10T06:03:01.460Z,53.40
2017-12-10T06:05:28.991Z,53.50
2017-12-10T06:07:56.507Z,53.70
2017-12-10T06:10:24.015Z,53.60
2017-12-10T06:12:51.514Z,53.50
2017-12-10T06:15:19.007Z,52.80
2017-12-10T06:17:46.511Z,53.50
2017-12-10T06:20:14.767Z,54.30
2017-12-10T06:22:42.252Z,54.30
2017-12-10T06:38:10.892Z,55.20
2017-12-10T06:40:39.911Z,55.10
2017-12-10T06:43:08.163Z,55.10
2017-12-10T06:45:35.656Z,55.00
2017-12-10T06:48:03.147Z,55.10
2017-12-10T06:50:30.639Z,55.20
2017-12-10T06:52:58.323Z,55.20
2017-12-10T06:55:26.600Z,55.30
2017-12-10T06:57:54.855Z,54.40
2017-12-10T07:00:22.351Z,54.30
2017-12-10T07:02:49.859Z,54.60
2017-12-10T07:05:17.371Z,54.30
2017-12-10T07:07:44.892Z,54.20
2017-12-10T07:10:13.173Z,54.60
2017-12-10T07:12:41.432Z,54.90
2017-12-10T07:15:08.943Z,54.90
2017-12-10T07:17:36.455Z,55.20
2017-12-10T07:20:04.547Z,55.40
2017-12-10T07:22:32.828Z,55.80
2017-12-10T07:25:01.091Z,56.60
2017-12-10T07:27:29.389Z,56.10
2017-12-10T07:29:57.638Z,56.20
2017-12-10T07:32:25.902Z,56.10
2017-12-10T07:34:53.399Z,56.10
2017-12-10T07:37:20.896Z,55.80
2017-12-10T07:39:48.421Z,55.70
2017-12-10T07:42:15.923Z,55.80
2017-12-10T07:44:43.423Z,55.90
2017-12-10T07:47:11.687Z,56.00
2017-12-10T07:49:39.950Z,56.10
2017-12-10T07:52:07.451Z,56.10
2017-12-10T07:54:34.947Z,56.10
2017-12-10T07:57:02.464Z,56.30
2017-12-10T07:59:29.971Z,56.30
2017-12-10T08:01:57.471Z,56.40
2017-12-10T08:04:24.989Z,56.50
2017-12-10T08:06:52.483Z,56.50
2017-12-10T08:09:20.764Z,56.70
2017-12-10T08:11:48.276Z,56.70
2017-12-10T08:14:15.780Z,56.70
2017-12-10T08:16:43.447Z,56.80
2017-12-10T08:19:10.960Z,56.70
2017-12-10T08:21:38.452Z,56.70
2017-12-10T08:24:06.725Z,56.60
2017-12-10T08:26:35.003Z,56.80
2017-12-10T08:29:03.259Z,56.60
2017-12-10T08:31:30.770Z,56.60
2017-12-10T08:33:58.273Z,56.50
2017-12-10T08:36:25.768Z,56.50
2017-12-10T08:38:53.260Z,56.20
2017-12-10T08:41:20.751Z,56.10
2017-12-10T08:43:48.259Z,56.00
2017-12-10T08:46:15.783Z,55.80
2017-12-10T08:48:44.044Z,55.80
2017-12-10T08:51:11.557Z,55.60
2017-12-10T08:53:39.052Z,55.60
2017-12-10T08:56:06.543Z,55.60
2017-12-10T08:58:34.812Z,55.70
2017-12-10T09:01:03.080Z,55.30
2017-12-10T09:03:31.335Z,55.00
2017-12-10T09:05:58.823Z,55.00
2017-12-10T09:08:27.104Z,54.30
2017-12-10T09:10:55.375Z,53.80
2017-12-10T09:13:23.638Z,53.50
2017-12-10T09:15:51.135Z,53.50
2017-12-10T09:18:18.623Z,53.30
2017-12-10T09:20:46.119Z,52.80
2017-12-10T09:23:14.386Z,51.40
2017-12-10T09:25:41.881Z,51.40
2017-12-10T09:28:09.373Z,50.60
2017-12-10T09:30:36.862Z,50.50
2017-12-10T09:33:04.353Z,50.10
2017-12-10T09:35:31.847Z,49.90
2017-12-10T09:37:59.336Z,50.30
2017-12-10T09:40:26.819Z,50.20
2017-12-10T09:42:54.318Z,50.20
2017-12-10T09:45:21.824Z,50.10
2017-12-10T09:47:50.092Z,48.40
2017-12-10T09:50:18.352Z,47.70
2017-12-10T09:52:45.839Z,47.60
2017-12-10T09:55:14.111Z,45.00
2017-12-10T09:57:42.600Z,44.20
2017-12-10T10:00:10.095Z,44.20
2017-12-10T10:02:37.594Z,43.40
2017-12-10T10:05:05.079Z,43.20
2017-12-10T10:07:32.580Z,43.10
2017-12-10T10:10:00.291Z,42.40
2017-12-10T10:12:28.566Z,41.00
2017-12-10T10:14:56.823Z,41.00
2017-12-10T10:17:25.255Z,41.30
2017-12-10T10:19:52.757Z,41.30
2017-12-10T10:22:20.256Z,41.30
2017-12-10T10:24:47.769Z,41.10
2017-12-10T10:27:15.277Z,40.10
2017-12-10T10:29:42.767Z,40.10
2017-12-10T10:32:10.278Z,39.10
2017-12-10T10:34:38.533Z,37.70
2017-12-10T10:37:06.811Z,37.60
2017-12-10T10:39:34.562Z,37.60
2017-12-10T10:42:02.069Z,38.00
2017-12-10T10:44:29.703Z,38.70
2017-12-10T10:46:57.960Z,36.90
2017-12-10T10:49:25.460Z,36.90
2017-12-10T10:51:52.947Z,37.30
2017-12-10T10:54:20.470Z,35.90
2017-12-10T10:56:47.979Z,36.00
2017-12-10T10:59:15.490Z,36.00
2017-12-10T11:01:43.104Z,36.00
2017-12-10T11:04:10.591Z,35.20
2017-12-10T11:06:38.883Z,34.90
2017-12-10T11:09:06.383Z,34.90
2017-12-10T11:11:33.875Z,34.40
2017-12-10T11:14:02.136Z,34.10
2017-12-10T11:16:29.819Z,34.10
2017-12-10T11:18:58.077Z,34.50
2017-12-10T11:21:25.564Z,34.50
2017-12-10T11:23:53.068Z,34.50
2017-12-10T11:26:20.572Z,34.80
2017-12-10T11:28:48.837Z,34.80
2017-12-10T11:31:17.099Z,34.80
2017-12-10T11:33:44.603Z,34.80
2017-12-10T11:36:12.103Z,34.90
2017-12-10T11:38:39.601Z,35.40
2017-12-10T11:41:07.872Z,35.00
2017-12-10T11:43:36.135Z,35.90
2017-12-10T11:46:03.650Z,35.90
2017-12-10T11:48:31.410Z,36.40
2017-12-10T11:50:58.903Z,34.50
2017-12-10T11:53:26.394Z,35.20
2017-12-10T11:55:54.659Z,33.60
2017-12-10T11:58:22.923Z,32.50
2017-12-10T12:00:50.428Z,32.40
2017-12-10T12:03:17.936Z,32.80
2017-12-10T12:05:45.425Z,32.90
2017-12-10T12:08:13.678Z,32.50
2017-12-10T12:10:41.183Z,32.50
2017-12-10T12:13:08.692Z,33.00
2017-12-10T12:15:36.206Z,31.70
2017-12-10T12:18:03.707Z,32.50
2017-12-10T12:20:31.199Z,31.20
2017-12-10T12:22:58.707Z,30.90
2017-12-10T12:25:26.199Z,32.20
2017-12-10T12:27:54.456Z,33.70
2017-12-10T12:30:22.037Z,33.70
2017-12-10T12:32:50.294Z,33.70
2017-12-10T12:35:17.791Z,33.70
2017-12-10T12:37:45.295Z,33.00
2017-12-10T12:40:12.812Z,33.00
2017-12-10T12:42:40.303Z,33.40
2017-12-10T12:45:07.796Z,32.00
2017-12-10T12:47:36.082Z,32.40
2017-12-10T12:50:04.343Z,33.20
2017-12-10T12:52:32.616Z,33.90
2017-12-10T12:55:00.131Z,33.80
2017-12-10T12:57:27.631Z,35.30
2017-12-10T12:59:55.119Z,36.60
2017-12-10T13:02:22.616Z,38.00
2017-12-10T13:04:50.106Z,38.70
2017-12-10T13:07:17.615Z,38.90
2017-12-10T13:09:45.111Z,39.20
2017-12-10T13:12:12.610Z,40.00
2017-12-10T13:14:40.104Z,41.00
2017-12-10T13:17:07.595Z,41.80
2017-12-10T13:19:36.591Z,42.80
2017-12-10T13:22:04.101Z,42.80
2017-12-10T13:24:31.595Z,43.40
2017-12-10T13:26:59.080Z,43.60
2017-12-10T13:29:27.339Z,43.80
2017-12-10T13:31:54.838Z,43.60
2017-12-10T13:34:23.179Z,43.60
2017-12-10T13:36:50.663Z,43.10
2017-12-10T13:39:18.167Z,43.10
2017-12-10T13:41:47.227Z,42.70
2017-12-10T13:44:14.730Z,42.70
2017-12-10T13:46:42.224Z,42.40
2017-12-10T13:49:10.496Z,42.70
2017-12-10T13:51:38.756Z,42.90
2017-12-10T13:54:06.255Z,42.80
2017-12-10T13:56:33.747Z,43.00
2017-12-10T13:59:01.247Z,43.00
2017-12-10T14:01:29.527Z,43.30
2017-12-10T14:03:57.791Z,43.20
2017-12-10T14:06:26.067Z,43.50
2017-12-10T14:08:54.333Z,43.70
2017-12-10T14:11:22.013Z,43.70
2017-12-10T14:13:50.271Z,43.50
2017-12-10T14:16:17.791Z,43.50
2017-12-10T14:18:45.303Z,43.90
2017-12-10T14:21:13.554Z,43.10
2017-12-10T14:23:41.049Z,43.10
2017-12-10T14:26:09.310Z,43.40
2017-12-10T14:28:37.695Z,43.50
2017-12-10T14:31:05.943Z,43.60
2017-12-10T14:33:33.435Z,43.50
2017-12-10T14:36:01.712Z,43.80
2017-12-10T14:38:29.979Z,43.90
2017-12-10T14:40:58.236Z,44.10
2017-12-10T14:43:25.747Z,44.10
2017-12-10T14:45:53.276Z,44.70
2017-12-10T14:48:21.546Z,44.30
2017-12-10T14:50:49.799Z,44.50
2017-12-10T14:53:17.310Z,44.50
2017-12-10T14:55:44.795Z,43.60
2017-12-10T14:58:12.283Z,43.70
2017-12-10T15:00:39.779Z,43.40
2017-12-10T15:03:07.271Z,44.10
2017-12-10T15:05:34.811Z,43.80
2017-12-10T15:08:02.316Z,44.00
2017-12-10T15:10:29.878Z,44.00
2017-12-10T15:12:57.372Z,43.70
2017-12-10T15:15:24.864Z,43.90
2017-12-10T15:17:52.350Z,43.00
2017-12-10T15:20:19.839Z,42.70
2017-12-10T15:22:47.339Z,43.20
2017-12-10T15:25:14.855Z,42.70
2017-12-10T15:27:42.363Z,43.00
2017-12-10T15:30:09.866Z,43.30
2017-12-10T15:32:37.395Z,43.70
2017-12-10T15:35:04.885Z,44.00
2017-12-10T15:37:32.378Z,43.40
2017-12-10T15:39:59.868Z,43.20
2017-12-10T15:42:27.359Z,43.10
2017-12-10T15:44:54.847Z,43.00
2017-12-10T15:47:22.352Z,43.10
2017-12-10T15:49:50.023Z,43.30
2017-12-10T15:52:18.277Z,43.60
2017-12-10T15:54:45.780Z,43.50
2017-12-10T15:57:13.271Z,43.80
2017-12-10T15:59:41.114Z,44.00
2017-12-10T16:02:08.680Z,44.10
2017-12-10T16:04:36.907Z,44.90
2017-12-10T16:07:04.519Z,44.90
2017-12-10T16:09:32.023Z,46.30
2017-12-10T16:11:59.525Z,46.50
2017-12-10T16:14:27.031Z,46.00
2017-12-10T16:16:54.523Z,45.70
2017-12-10T16:19:22.807Z,46.00
2017-12-10T16:21:50.303Z,46.00
2017-12-10T16:24:17.814Z,46.80
2017-12-10T16:26:46.087Z,48.20
2017-12-10T16:29:14.344Z,48.70
2017-12-10T16:31:41.890Z,48.70
2017-12-10T16:34:09.395Z,49.50
2017-12-10T16:36:36.908Z,50.00
2017-12-10T16:39:04.416Z,50.80
2017-12-10T16:41:31.923Z,51.90
2017-12-10T16:43:59.436Z,52.30
2017-12-10T16:46:26.934Z,52.60
2017-12-10T16:48:54.419Z,52.40
2017-12-10T16:51:22.684Z,51.90
2017-12-10T16:53:50.196Z,51.80
2017-12-10T16:56:17.703Z,51.20
2017-12-10T16:58:45.195Z,50.80
2017-12-10T17:01:12.689Z,50.80
2017-12-10T17:03:40.211Z,50.90
2017-12-10T17:06:07.705Z,50.90
2017-12-10T17:08:35.198Z,50.90
2017-12-10T17:11:03.455Z,50.70
2017-12-10T17:13:30.959Z,50.70
2017-12-10T17:15:58.602Z,50.60
2017-12-10T17:18:26.865Z,50.80
2017-12-10T17:20:54.374Z,50.80
2017-12-10T17:23:21.871Z,50.80
2017-12-10T17:25:49.362Z,51.10
2017-12-10T17:28:16.901Z,51.10
2017-12-10T17:30:44.576Z,51.20
2017-12-10T17:33:12.088Z,51.60
2017-12-10T17:35:39.579Z,51.70
2017-12-10T17:38:07.087Z,51.90
2017-12-10T17:40:34.607Z,52.40
2017-12-10T17:43:02.886Z,52.70
2017-12-10T17:45:31.167Z,52.90
2017-12-10T17:47:59.642Z,53.50
2017-12-10T17:50:27.907Z,53.50
2017-12-10T17:52:55.419Z,53.40
2017-12-10T17:55:23.035Z,53.50
2017-12-10T17:57:51.310Z,53.50
2017-12-10T18:00:19.575Z,53.60
2017-12-10T18:02:47.859Z,53.60
2017-12-10T18:05:15.354Z,53.60
2017-12-10T18:07:42.851Z,53.50
2017-12-10T18:10:10.355Z,53.60
2017-12-10T18:12:37.851Z,53.80
2017-12-10T18:15:05.351Z,53.80
2017-12-10T18:17:33.619Z,53.70
2017-12-10T18:20:01.131Z,53.70
2017-12-10T18:22:28.627Z,53.90
2017-12-10T18:24:56.140Z,53.90
2017-12-10T18:27:23.631Z,54.00
2017-12-10T18:29:51.135Z,54.50
2017-12-10T18:32:19.414Z,54.80
2017-12-10T18:34:47.687Z,54.90
2017-12-10T18:37:15.955Z,55.00
2017-12-10T18:39:44.223Z,55.00
2017-12-10T18:42:12.490Z,55.00
2017-12-10T18:44:40.048Z,55.00
2017-12-10T18:47:07.544Z,54.90
2017-12-10T18:49:35.050Z,54.70
2017-12-10T18:52:02.542Z,54.80
2017-12-10T18:54:30.805Z,55.00
2017-12-10T18:56:58.305Z,55.00
2017-12-10T18:59:25.815Z,55.10
2017-12-10T19:01:53.316Z,55.10
2017-12-10T19:04:20.828Z,55.20
2017-12-10T19:06:48.342Z,55.50
2017-12-10T19:09:15.839Z,55.50
2017-12-10T19:11:43.357Z,55.70
2017-12-10T19:14:10.851Z,55.70
2017-12-10T19:16:38.347Z,55.60
2017-12-10T19:19:06.631Z,55.70
2017-12-10T19:21:34.130Z,55.70
2017-12-10T19:24:01.646Z,55.80
2017-12-10T19:26:29.155Z,56.10
2017-12-10T19:28:56.656Z,56.20
2017-12-10T19:31:24.927Z,56.30
2017-12-10T19:33:53.194Z,56.30
2017-12-10T19:36:21.471Z,56.00
2017-12-10T19:38:48.970Z,56.00
2017-12-10T19:41:16.492Z,56.00
2017-12-10T19:43:44.771Z,56.80
2017-12-10T19:46:13.035Z,56.20
2017-12-10T19:48:40.537Z,56.10
2017-12-10T19:51:08.056Z,55.70
2017-12-10T19:53:35.555Z,56.30
2017-12-10T19:56:03.051Z,56.30
2017-12-10T19:58:30.564Z,56.40
2017-12-10T20:00:58.202Z,56.50
2017-12-10T20:03:26.475Z,56.70
2017-12-10T20:05:54.739Z,56.90
2017-12-10T20:08:22.243Z,56.90
2017-12-10T20:10:49.752Z,57.00
2017-12-10T20:13:17.435Z,56.90
2017-12-10T20:15:45.706Z,57.90
2017-12-10T20:18:13.980Z,57.90
2017-12-10T20:20:42.258Z,57.80
2017-12-10T20:23:10.527Z,57.60
2017-12-10T20:25:38.052Z,57.50
2017-12-10T20:28:05.552Z,58.10
2017-12-10T20:30:33.836Z,57.50
2017-12-10T20:33:02.101Z,57.50
2017-12-10T20:35:30.371Z,57.70
2017-12-10T20:37:57.890Z,57.70
2017-12-10T20:40:25.383Z,58.10
2017-12-10T20:42:52.892Z,58.30
2017-12-10T20:45:20.387Z,58.70
2017-12-10T20:47:48.079Z,58.50
2017-12-10T20:50:16.871Z,58.30
2017-12-10T20:52:45.125Z,58.30
2017-12-10T20:55:12.616Z,58.20
2017-12-10T20:57:40.891Z,58.60
2017-12-10T21:00:09.166Z,59.50
2017-12-10T21:02:36.683Z,58.90
2017-12-10T21:05:04.179Z,59.20
2017-12-10T21:07:32.436Z,60.30
2017-12-10T21:09:59.947Z,60.10
2017-12-10T21:12:27.445Z,60.30
2017-12-10T21:14:54.984Z,60.50
2017-12-10T21:17:22.490Z,60.60
2017-12-10T21:19:50.866Z,60.40
2017-12-10T21:22:19.347Z,60.50
2017-12-10T21:24:47.619Z,60.60
2017-12-10T21:27:15.905Z,60.40
2017-12-10T21:29:44.176Z,60.50
2017-12-10T21:32:12.427Z,60.60
2017-12-10T21:34:40.126Z,60.50
2017-12-10T21:37:07.631Z,61.20
2017-12-10T21:39:35.144Z,61.60
2017-12-10T21:42:02.650Z,61.80
2017-12-10T21:47:04.963Z,61.50
2017-12-10T21:49:32.472Z,61.40
2017-12-10T21:51:59.967Z,61.70
2017-12-10T21:54:27.467Z,61.90
2017-12-10T21:56:55.030Z,63.00
2017-12-10T21:59:22.471Z,63.10
2017-12-10T22:01:50.727Z,63.70
2017-12-10T22:04:19.007Z,63.60
2017-12-10T22:06:46.528Z,63.50
2017-12-10T22:09:14.015Z,63.30
2017-12-10T22:11:41.512Z,63.10
2017-12-10T22:14:09.018Z,63.10
2017-12-10T22:16:36.511Z,63.10
2017-12-10T22:19:04.764Z,62.70
2017-12-10T22:21:32.256Z,62.60
2017-12-10T22:24:00.523Z,62.80
2017-12-10T22:26:28.779Z,63.60
2017-12-10T22:28:56.291Z,63.60
2017-12-10T22:31:23.912Z,64.10
2017-12-10T22:33:52.172Z,64.50
2017-12-10T22:36:19.667Z,64.40
2017-12-10T22:38:47.175Z,64.50
2017-12-10T22:41:14.668Z,64.40
2017-12-10T22:43:42.920Z,64.50
2017-12-10T22:46:10.428Z,64.50
2017-12-10T22:48:37.943Z,64.50
2017-12-10T22:51:05.435Z,64.70
2017-12-10T22:53:32.926Z,65.40
2017-12-10T22:56:00.420Z,65.50
2017-12-10T22:58:27.913Z,65.20
2017-12-10T23:00:55.411Z,65.60
2017-12-10T23:03:23.119Z,64.60
2017-12-10T23:05:51.376Z,64.50
2017-12-10T23:08:18.891Z,64.50
2017-12-10T23:10:46.611Z,65.30
2017-12-10T23:13:14.879Z,64.70
2017-12-10T23:15:43.136Z,65.20
2017-12-10T23:18:10.649Z,65.20
2017-12-10T23:20:38.147Z,65.60
2017-12-10T23:23:05.639Z,65.90
2017-12-10T23:25:33.898Z,65.80
2017-12-10T23:28:01.387Z,65.60
2017-12-10T23:30:28.904Z,65.50
2017-12-10T23:32:56.395Z,65.50
2017-12-10T23:35:24.676Z,65.20
2017-12-10T23:37:52.176Z,65.20
2017-12-10T23:40:19.692Z,65.20
2017-12-10T23:42:47.211Z,65.00
2017-12-10T23:45:14.763Z,65.20
2017-12-10T23:47:42.284Z,65.70
2017-12-10T23:50:09.779Z,65.80
2017-12-10T23:52:37.283Z,66.50
2017-12-10T23:55:05.541Z,66.00
2017-12-10T23:57:33.827Z,65.90
